Time;durP1;ratioP1;P1;durP2;ratioP2;P2;SDS_P1;SDS_P2;PMS_P1;PMS_P2;Temp;Humidity;BMP_temperature;BMP_pressure;BME280_temperature;BME280_humidity;BME280_pressure;Samples;Min_cycle;Max_cycle;Signal;HPM_P1;HPM_P2
2021/04/14 00:01:11;;;;;;;8.30;3.55;;;3.20;90.80;;;;;;5137193;27;20035;-72
2021/04/14 00:03:37;;;;;;;7.68;3.63;;;3.20;90.80;;;;;;5135080;27;20035;-72
2021/04/14 00:06:08;;;;;;;8.27;3.70;;;3.20;90.80;;;;;;5136282;27;20054;-72
2021/04/14 00:08:34;;;;;;;8.13;4.10;;;3.20;90.90;;;;;;5136915;27;20088;-72
2021/04/14 00:11:01;;;;;;;9.15;3.53;;;3.10;91.00;;;;;;5136597;27;20043;-72
2021/04/14 00:13:34;;;;;;;11.98;3.60;;;3.10;91.00;;;;;;5137207;27;20061;-72
2021/04/14 00:16:00;;;;;;;11.35;3.60;;;3.10;91.00;;;;;;5136138;27;20035;-72
2021/04/14 00:18:27;;;;;;;13.48;3.63;;;3.10;91.10;;;;;;5136604;27;20394;-72
2021/04/14 00:20:53;;;;;;;7.15;3.65;;;3.00;91.20;;;;;;5136564;27;20060;-72
2021/04/14 00:23:21;;;;;;;6.03;4.03;;;3.00;91.30;;;;;;5136584;27;20031;-72
2021/04/14 00:25:48;;;;;;;7.32;3.45;;;3.00;91.30;;;;;;5135986;27;20080;-72
2021/04/14 00:28:16;;;;;;;8.00;3.90;;;3.00;91.40;;;;;;5136458;27;20042;-72
2021/04/14 00:30:43;;;;;;;9.77;4.05;;;3.00;91.50;;;;;;5135360;27;20067;-72
2021/04/14 00:33:09;;;;;;;10.55;3.22;;;3.00;91.50;;;;;;5136327;27;20084;-72
2021/04/14 00:35:35;;;;;;;5.70;3.35;;;2.90;91.70;;;;;;5136037;27;20039;-72
2021/04/14 00:38:00;;;;;;;7.38;3.50;;;3.00;91.70;;;;;;5137045;27;20035;-72
2021/04/14 00:40:30;;;;;;;9.05;3.85;;;3.00;91.80;;;;;;5136232;27;20110;-72
2021/04/14 00:42:57;;;;;;;7.10;3.55;;;3.00;91.80;;;;;;5136036;27;20036;-72
2021/04/14 00:45:24;;;;;;;6.43;3.17;;;3.00;91.90;;;;;;5135748;27;20096;-72
2021/04/14 00:47:50;;;;;;;7.30;3.65;;;3.00;91.80;;;;;;5135887;27;20041;-72
2021/04/14 00:50:22;;;;;;;5.15;2.70;;;3.00;91.80;;;;;;5136920;27;20110;-72
2021/04/14 00:52:48;;;;;;;9.15;3.05;;;3.10;91.70;;;;;;5134561;27;20035;-72
2021/04/14 00:55:16;;;;;;;4.65;2.30;;;3.10;91.60;;;;;;5135370;27;20049;-72
2021/04/14 00:57:42;;;;;;;6.28;2.65;;;3.00;91.60;;;;;;5135609;27;20035;-72
2021/04/14 01:00:15;;;;;;;4.38;2.42;;;3.00;91.50;;;;;;5134624;27;20031;-72
2021/04/14 01:02:41;;;;;;;4.05;2.15;;;3.00;91.60;;;;;;5135858;27;20062;-71
2021/04/14 01:05:09;;;;;;;7.45;1.88;;;3.00;91.50;;;;;;5135198;27;20039;-72
2021/04/14 01:07:35;;;;;;;5.90;1.77;;;3.00;91.30;;;;;;5135365;27;20035;-72
2021/04/14 01:10:01;;;;;;;5.18;2.08;;;3.00;91.30;;;;;;5135679;27;20466;-72
2021/04/14 01:12:26;;;;;;;2.58;1.20;;;3.10;91.30;;;;;;5135745;27;20111;-72
2021/04/14 01:14:52;;;;;;;4.00;1.30;;;3.00;91.30;;;;;;5135342;27;20085;-72
2021/04/14 01:17:17;;;;;;;4.35;1.48;;;3.00;91.40;;;;;;5134307;27;20039;-72
2021/04/14 01:19:43;;;;;;;4.30;1.30;;;3.00;91.30;;;;;;5135460;27;20038;-72
2021/04/14 01:22:09;;;;;;;5.00;1.30;;;3.00;91.30;;;;;;5135853;27;20035;-72
2021/04/14 01:24:34;;;;;;;1.95;1.10;;;3.00;91.30;;;;;;5135460;27;20043;-72
2021/04/14 01:27:00;;;;;;;3.30;1.10;;;3.00;91.40;;;;;;5135103;27;20035;-72
2021/04/14 01:29:26;;;;;;;5.13;1.30;;;3.00;91.40;;;;;;5135473;27;20420;-71
2021/04/14 01:31:51;;;;;;;1.83;1.30;;;2.90;91.60;;;;;;5135616;27;20103;-72
2021/04/14 01:34:17;;;;;;;3.30;1.35;;;2.90;91.70;;;;;;5134891;27;20106;-72
2021/04/14 01:36:44;;;;;;;4.80;1.10;;;3.00;91.60;;;;;;5134807;27;20118;-72
2021/04/14 01:39:12;;;;;;;1.90;0.82;;;3.00;91.50;;;;;;5135395;27;20066;-72
2021/04/14 01:41:39;;;;;;;4.75;0.75;;;3.00;91.20;;;;;;5134959;27;20076;-71
2021/04/14 01:44:09;;;;;;;4.97;1.02;;;3.00;91.10;;;;;;5135054;27;20039;-72
2021/04/14 01:46:37;;;;;;;2.08;0.50;;;3.00;91.10;;;;;;5133467;27;20084;-72
2021/04/14 01:49:03;;;;;;;3.25;0.70;;;3.00;91.10;;;;;;5135437;27;20035;-71
2021/04/14 01:51:30;;;;;;;1.98;0.47;;;3.00;91.10;;;;;;5134801;27;20164;-72
2021/04/14 01:53:55;;;;;;;2.30;0.40;;;3.10;90.90;;;;;;5134798;27;20049;-72
2021/04/14 01:56:22;;;;;;;2.20;0.52;;;3.10;90.70;;;;;;5134509;27;20421;-71
2021/04/14 01:58:48;;;;;;;3.58;0.75;;;3.20;90.70;;;;;;5134807;27;20482;-71
2021/04/14 02:01:14;;;;;;;2.47;0.65;;;3.20;90.70;;;;;;5135451;27;20031;-72
2021/04/14 02:03:40;;;;;;;1.13;0.35;;;3.30;90.70;;;;;;5135271;27;20035;-72
2021/04/14 02:06:11;;;;;;;1.58;0.50;;;3.20;90.80;;;;;;5134161;27;20035;-71
2021/04/14 02:08:37;;;;;;;0.98;0.43;;;3.20;90.90;;;;;;5135069;27;20035;-71
2021/04/14 02:11:05;;;;;;;1.20;0.40;;;3.20;90.90;;;;;;5134846;27;20042;-72
2021/04/14 02:13:35;;;;;;;2.58;0.38;;;3.20;90.80;;;;;;5134377;27;20042;-71
2021/04/14 02:16:04;;;;;;;3.50;1.15;;;3.20;90.70;;;;;;5133107;27;20053;-71
2021/04/14 02:18:48;;;;;;;5.25;1.75;;;3.20;90.60;;;;;;5134522;27;20043;-72
2021/04/14 02:21:14;;;;;;;1.15;0.52;;;3.10;90.70;;;;;;5134614;27;20031;-72
2021/04/14 02:23:41;;;;;;;2.15;0.50;;;3.10;90.80;;;;;;5134677;27;20046;-72
2021/04/14 02:26:13;;;;;;;2.22;0.68;;;3.00;90.90;;;;;;5134127;27;20050;-72
2021/04/14 02:28:40;;;;;;;1.88;0.60;;;3.00;91.00;;;;;;5134450;27;20039;-72
2021/04/14 02:31:07;;;;;;;3.05;0.52;;;2.90;91.10;;;;;;5134171;27;20035;-72
2021/04/14 02:33:34;;;;;;;1.95;0.52;;;2.90;91.10;;;;;;5134681;27;20039;-71
2021/04/14 02:36:00;;;;;;;3.95;0.65;;;2.80;91.20;;;;;;5134074;27;20039;-72
2021/04/14 02:38:26;;;;;;;2.35;0.57;;;2.70;91.30;;;;;;5134146;27;20407;-71
2021/04/14 02:41:00;;;;;;;3.15;0.82;;;2.70;91.60;;;;;;5134800;28;20131;-71
2021/04/14 02:43:51;;;;;;;3.25;0.80;;;2.70;91.70;;;;;;5134076;28;20076;-71
2021/04/14 02:46:18;;;;;;;2.03;0.80;;;2.60;91.70;;;;;;5133889;27;20436;-71
2021/04/14 02:48:44;;;;;;;1.17;0.65;;;2.60;91.50;;;;;;5136961;27;20496;-72
2021/04/14 02:51:30;;;;;;;2.88;0.90;;;2.70;91.60;;;;;;5136333;28;20453;-72
2021/04/14 02:53:56;;;;;;;3.22;1.08;;;2.60;91.60;;;;;;5133997;27;20039;-71
2021/04/14 02:56:22;;;;;;;3.13;0.85;;;2.60;91.60;;;;;;5133584;27;20066;-71
2021/04/14 02:58:48;;;;;;;1.73;0.73;;;2.60;91.50;;;;;;5134478;27;20051;-71
2021/04/14 03:01:15;;;;;;;2.22;1.20;;;2.60;91.30;;;;;;5134014;27;20119;-71
2021/04/14 03:03:41;;;;;;;5.93;1.20;;;2.60;91.20;;;;;;5134450;27;20035;-71
2021/04/14 03:06:07;;;;;;;6.38;0.90;;;2.60;91.30;;;;;;5133512;27;20050;-72
2021/04/14 03:08:33;;;;;;;1.98;1.00;;;2.60;91.40;;;;;;5134465;27;20027;-71
2021/04/14 03:10:58;;;;;;;1.25;0.90;;;2.60;91.40;;;;;;5134303;27;20035;-72
2021/04/14 03:13:25;;;;;;;2.33;1.30;;;2.60;91.40;;;;;;5133235;28;20039;-71
2021/04/14 03:15:51;;;;;;;1.67;1.42;;;2.60;91.50;;;;;;5133657;27;20471;-71
2021/04/14 03:18:17;;;;;;;2.58;1.15;;;2.50;91.60;;;;;;5134318;27;20379;-71
2021/04/14 03:20:44;;;;;;;2.22;1.10;;;2.60;91.70;;;;;;5133947;27;20036;-71
2021/04/14 03:23:12;;;;;;;3.67;0.80;;;2.70;92.00;;;;;;5133804;28;20035;-71
2021/04/14 03:25:38;;;;;;;4.30;1.33;;;2.70;91.90;;;;;;5133627;27;20074;-71
2021/04/14 03:28:04;;;;;;;2.05;1.48;;;2.60;92.20;;;;;;5133680;27;20062;-71
2021/04/14 03:30:31;;;;;;;5.53;1.23;;;2.60;91.90;;;;;;5133602;28;20035;-71
2021/04/14 03:32:57;;;;;;;2.78;1.20;;;2.60;91.90;;;;;;5134253;27;20088;-71
2021/04/14 03:35:24;;;;;;;2.90;1.40;;;2.60;92.10;;;;;;5133622;27;20433;-71
2021/04/14 03:37:50;;;;;;;6.20;1.92;;;2.60;92.00;;;;;;5133777;27;20096;-71
2021/04/14 03:40:36;;;;;;;3.22;1.10;;;2.50;92.10;;;;;;5135384;27;20035;-71
2021/04/14 03:43:02;;;;;;;2.83;1.33;;;2.50;92.20;;;;;;5137882;27;20089;-72
2021/04/14 03:45:37;;;;;;;3.65;1.15;;;2.40;92.50;;;;;;5137181;27;20126;-71
2021/04/14 03:48:05;;;;;;;4.03;1.00;;;2.50;92.20;;;;;;5137347;27;20042;-71
2021/04/14 03:50:31;;;;;;;1.80;1.00;;;2.50;92.10;;;;;;5137302;27;20062;-72
2021/04/14 03:53:26;;;;;;;2.80;1.00;;;2.60;92.00;;;;;;5136370;27;20047;-71
2021/04/14 03:56:22;;;;;;;3.42;1.30;;;2.60;92.10;;;;;;5136592;27;20035;-71
2021/04/14 03:58:51;;;;;;;2.53;1.10;;;2.60;92.20;;;;;;5128188;27;20043;-71
2021/04/14 04:01:27;;;;;;;2.97;1.08;;;2.60;92.00;;;;;;5136878;27;20041;-71
2021/04/14 04:03:53;;;;;;;3.10;1.00;;;2.50;92.10;;;;;;5136984;27;20042;-71
2021/04/14 04:06:19;;;;;;;2.88;1.08;;;2.50;92.00;;;;;;5136514;27;20536;-72
2021/04/14 04:08:46;;;;;;;4.43;1.08;;;2.50;92.00;;;;;;5136780;27;20091;-71
2021/04/14 04:11:12;;;;;;;3.03;0.80;;;2.50;92.00;;;;;;5136901;27;20455;-71
2021/04/14 04:13:38;;;;;;;1.15;0.90;;;2.50;92.00;;;;;;5136890;27;20042;-71
2021/04/14 04:16:04;;;;;;;1.70;0.88;;;2.60;91.90;;;;;;5136397;27;20120;-72
2021/04/14 04:18:30;;;;;;;2.55;0.70;;;2.60;91.90;;;;;;5137092;27;20459;-71
2021/04/14 04:20:56;;;;;;;4.68;0.95;;;2.50;92.00;;;;;;5137144;27;20035;-72
2021/04/14 04:23:23;;;;;;;3.03;1.02;;;2.50;92.00;;;;;;5136456;27;20356;-71
2021/04/14 04:25:49;;;;;;;5.10;1.17;;;2.50;92.10;;;;;;5136160;27;20071;-71
2021/04/14 04:28:14;;;;;;;1.67;0.80;;;2.60;92.10;;;;;;5136700;27;20045;-72
2021/04/14 04:30:40;;;;;;;4.75;1.13;;;2.50;92.00;;;;;;5136655;27;20110;-71
2021/04/14 04:33:07;;;;;;;4.85;1.13;;;2.60;92.10;;;;;;5136768;27;20130;-71
2021/04/14 04:35:34;;;;;;;3.63;1.05;;;2.60;92.10;;;;;;5135864;27;20035;-71
2021/04/14 04:38:00;;;;;;;4.53;1.00;;;2.60;92.10;;;;;;5136055;27;20057;-71
2021/04/14 04:40:27;;;;;;;1.55;1.08;;;2.50;92.00;;;;;;5135996;27;20544;-72
2021/04/14 04:42:53;;;;;;;2.67;1.20;;;2.50;92.00;;;;;;5136143;27;20035;-71
2021/04/14 04:45:21;;;;;;;4.85;1.20;;;2.50;92.00;;;;;;5135832;27;20419;-71
2021/04/14 04:47:47;;;;;;;1.77;1.10;;;2.50;92.00;;;;;;5136036;27;20035;-71
2021/04/14 04:50:34;;;;;;;3.53;1.30;;;2.50;92.00;;;;;;5135522;27;20130;-71
2021/04/14 04:53:09;;;;;;;5.15;1.02;;;2.50;92.10;;;;;;5135926;27;20039;-71
2021/04/14 04:55:35;;;;;;;3.95;1.20;;;2.40;92.20;;;;;;5135737;27;20455;-71
2021/04/14 04:58:01;;;;;;;3.13;1.48;;;2.50;92.20;;;;;;5136155;27;20042;-71
2021/04/14 05:00:27;;;;;;;5.55;1.35;;;2.50;92.10;;;;;;5136400;27;20370;-72
2021/04/14 05:02:53;;;;;;;3.15;1.00;;;2.50;92.20;;;;;;5136285;27;20084;-71
2021/04/14 05:05:22;;;;;;;4.07;1.30;;;2.50;92.20;;;;;;5135236;27;20046;-71
2021/04/14 05:07:49;;;;;;;3.08;1.27;;;2.60;92.20;;;;;;5135403;27;20037;-71
2021/04/14 05:10:16;;;;;;;2.97;1.42;;;2.60;92.30;;;;;;5135638;27;20065;-71
2021/04/14 05:12:42;;;;;;;2.78;1.15;;;2.70;92.30;;;;;;5135997;27;20069;-71
2021/04/14 05:15:09;;;;;;;2.08;1.13;;;2.80;92.20;;;;;;5134957;27;20070;-72
2021/04/14 05:17:35;;;;;;;4.78;1.42;;;2.90;92.00;;;;;;5135950;27;20504;-71
2021/04/14 05:20:01;;;;;;;1.88;1.27;;;3.10;91.90;;;;;;5134428;27;20035;-72
2021/04/14 05:22:29;;;;;;;2.58;1.05;;;3.30;91.60;;;;;;5135555;27;20110;-72
2021/04/14 05:24:55;;;;;;;3.45;1.50;;;3.50;91.40;;;;;;5135014;27;20043;-72
2021/04/14 05:27:21;;;;;;;2.38;1.35;;;3.60;91.20;;;;;;5135610;27;20486;-72
2021/04/14 05:29:47;;;;;;;4.43;1.88;;;3.80;91.10;;;;;;5135804;27;20031;-72
2021/04/14 05:32:12;;;;;;;4.53;2.55;;;4.00;90.90;;;;;;5135024;27;20039;-72
2021/04/14 05:34:42;;;;;;;5.63;2.30;;;4.10;90.60;;;;;;5134722;27;20087;-72
2021/04/14 05:37:08;;;;;;;4.88;1.75;;;4.30;90.60;;;;;;5134911;27;20042;-72
2021/04/14 05:39:55;;;;;;;7.35;2.00;;;4.60;90.20;;;;;;5134329;27;20043;-72
2021/04/14 05:42:21;;;;;;;6.22;1.70;;;4.80;90.00;;;;;;5134443;27;20063;-72
2021/04/14 05:44:47;;;;;;;4.60;1.80;;;4.90;89.20;;;;;;5134704;27;20043;-72
2021/04/14 05:47:13;;;;;;;1.92;1.63;;;5.20;88.90;;;;;;5135037;27;20035;-70
2021/04/14 05:49:39;;;;;;;4.72;2.00;;;5.40;88.00;;;;;;5135067;27;20038;-70
2021/04/14 05:52:05;;;;;;;2.88;1.70;;;5.50;87.30;;;;;;5135295;27;20050;-70
2021/04/14 05:54:31;;;;;;;4.45;1.83;;;5.70;86.70;;;;;;5134268;27;20035;-71
2021/04/14 05:56:57;;;;;;;7.20;2.40;;;5.80;85.70;;;;;;5134830;27;20036;-71
2021/04/14 05:59:23;;;;;;;3.58;1.70;;;6.00;85.70;;;;;;5135176;27;20035;-70
2021/04/14 06:01:49;;;;;;;2.50;1.80;;;6.10;85.00;;;;;;5134166;27;20114;-71
2021/04/14 06:04:34;;;;;;;3.45;1.50;;;6.30;84.10;;;;;;5133528;27;20042;-71
2021/04/14 06:07:00;;;;;;;1.75;1.30;;;6.40;83.50;;;;;;5134575;27;20053;-71
2021/04/14 06:09:25;;;;;;;5.90;1.23;;;6.60;82.90;;;;;;5135046;27;20070;-71
2021/04/14 06:11:51;;;;;;;2.22;1.40;;;6.80;82.30;;;;;;5134443;27;20035;-71
2021/04/14 06:14:17;;;;;;;1.58;1.10;;;6.80;81.70;;;;;;5134301;27;20072;-71
2021/04/14 06:16:42;;;;;;;4.47;1.58;;;7.10;81.50;;;;;;5134201;27;20035;-71
2021/04/14 06:19:08;;;;;;;2.35;1.10;;;7.20;80.40;;;;;;5134839;27;20043;-71
2021/04/14 06:21:40;;;;;;;5.75;1.42;;;7.40;79.60;;;;;;5134405;27;20063;-71
2021/04/14 06:24:07;;;;;;;5.00;1.25;;;7.60;79.20;;;;;;5134611;27;20429;-71
2021/04/14 06:29:01;;;;;;;3.00;0.93;;;7.80;78.90;;;;;;5134232;27;20087;-72
2021/04/14 06:31:27;;;;;;;2.88;1.20;;;7.80;78.30;;;;;;5134502;27;20030;-72
2021/04/14 06:33:54;;;;;;;3.08;1.20;;;7.90;77.80;;;;;;5134085;27;20038;-72
2021/04/14 06:36:21;;;;;;;2.65;1.00;;;7.90;77.30;;;;;;5133954;27;20505;-72
2021/04/14 06:38:49;;;;;;;4.22;1.30;;;8.20;77.30;;;;;;5134820;27;20080;-71
2021/04/14 06:41:53;;;;;;;3.13;1.02;;;8.30;76.30;;;;;;5133958;27;20483;-71
2021/04/14 06:44:35;;;;;;;6.68;1.48;;;8.40;76.00;;;;;;5134487;27;20035;-70
2021/04/14 06:47:11;;;;;;;4.47;1.20;;;8.60;75.50;;;;;;5132755;28;20513;-72
2021/04/14 06:49:43;;;;;;;6.03;1.88;;;8.70;75.30;;;;;;5134216;27;20031;-71
2021/04/14 06:52:12;;;;;;;5.13;1.30;;;8.70;74.80;;;;;;5133866;27;20039;-72
2021/04/14 06:55:28;;;;;;;3.75;1.13;;;8.60;74.70;;;;;;5133664;27;20038;-72
2021/04/14 06:58:04;;;;;;;4.10;1.48;;;8.70;74.00;;;;;;5091163;28;20055;-72
2021/04/14 07:00:37;;;;;;;5.85;1.25;;;9.00;73.90;;;;;;5091412;28;20115;-71
2021/04/14 07:03:13;;;;;;;5.93;1.80;;;8.90;73.40;;;;;;5120011;27;20047;-70
2021/04/14 07:05:56;;;;;;;4.65;1.52;;;9.10;73.10;;;;;;5133734;27;20110;-72
2021/04/14 07:08:31;;;;;;;2.80;1.40;;;9.40;72.60;;;;;;5132725;28;20074;-72
2021/04/14 07:11:00;;;;;;;4.65;1.45;;;9.50;72.60;;;;;;5134089;28;20039;-72
2021/04/14 07:13:28;;;;;;;3.25;1.50;;;9.80;72.20;;;;;;5134942;27;20446;-72
2021/04/14 07:16:10;;;;;;;3.08;1.65;;;9.80;71.40;;;;;;5137151;27;20543;-72
2021/04/14 07:18:57;;;;;;;3.45;1.60;;;10.00;70.80;;;;;;5136512;27;20039;-71
2021/04/14 07:21:25;;;;;;;5.50;1.48;;;10.10;69.40;;;;;;5137610;27;20031;-72
2021/04/14 07:24:00;;;;;;;5.28;1.63;;;10.20;70.20;;;;;;5136754;27;20035;-72
2021/04/14 07:26:40;;;;;;;5.18;1.55;;;10.20;69.80;;;;;;5137774;27;20035;-72
2021/04/14 07:29:05;;;;;;;4.22;1.27;;;10.30;69.30;;;;;;5137548;27;20031;-71
2021/04/14 07:31:40;;;;;;;6.15;1.88;;;10.40;68.50;;;;;;5137433;27;20384;-72
2021/04/14 07:34:55;;;;;;;5.68;1.65;;;10.30;67.90;;;;;;5136267;27;20505;-73
2021/04/14 07:37:39;;;;;;;3.97;2.10;;;10.60;66.40;;;;;;5114204;27;20061;-73
2021/04/14 07:40:23;;;;;;;5.43;1.17;;;10.50;66.10;;;;;;5137938;27;20058;-73
2021/04/14 07:42:55;;;;;;;5.22;1.70;;;10.60;66.70;;;;;;5137403;27;20035;-73
2021/04/14 07:45:21;;;;;;;5.65;1.60;;;10.80;66.60;;;;;;5136980;27;20035;-73
2021/04/14 07:47:51;;;;;;;3.70;1.20;;;10.70;66.50;;;;;;5137086;27;20035;-73
2021/04/14 07:50:21;;;;;;;5.18;1.30;;;10.80;65.40;;;;;;5137855;27;20062;-72
2021/04/14 07:52:47;;;;;;;5.30;1.20;;;10.80;65.00;;;;;;5137148;27;20035;-73
2021/04/14 07:55:32;;;;;;;4.55;1.00;;;10.60;64.80;;;;;;5136598;27;20487;-72
2021/04/14 07:58:16;;;;;;;4.90;1.00;;;10.40;65.10;;;;;;5136899;27;20043;-72
2021/04/14 08:00:45;;;;;;;5.57;1.45;;;10.80;64.30;;;;;;5137014;27;20479;-73
2021/04/14 08:03:29;;;;;;;8.00;1.15;;;10.90;65.30;;;;;;5136079;27;20075;-72
2021/04/14 08:06:17;;;;;;;4.65;1.40;;;11.10;65.20;;;;;;5136511;27;20039;-72
2021/04/14 08:08:47;;;;;;;4.85;1.20;;;11.60;62.40;;;;;;5136849;27;20027;-73
2021/04/14 08:11:30;;;;;;;3.95;0.73;;;11.20;63.70;;;;;;5136766;27;20035;-73
2021/04/14 08:14:06;;;;;;;6.65;0.80;;;10.40;64.10;;;;;;5137079;27;20043;-72
2021/04/14 08:16:36;;;;;;;3.08;1.00;;;9.90;63.30;;;;;;5136086;27;20148;-72
2021/04/14 08:19:25;;;;;;;4.57;1.27;;;9.60;65.30;;;;;;5135411;27;20031;-71
2021/04/14 08:22:21;;;;;;;7.50;1.02;;;9.60;65.50;;;;;;5136194;27;20047;-72
2021/04/14 08:24:53;;;;;;;6.88;0.95;;;9.50;64.20;;;;;;5135688;27;20502;-73
2021/04/14 08:27:23;;;;;;;1.88;0.60;;;9.50;65.80;;;;;;5136307;27;20502;-73
2021/04/14 08:30:04;;;;;;;3.35;0.80;;;8.90;68.60;;;;;;5136202;27;20035;-72
2021/04/14 08:32:34;;;;;;;5.72;1.42;;;8.30;71.20;;;;;;5136354;27;20046;-72
2021/04/14 08:35:02;;;;;;;8.25;1.02;;;7.80;72.70;;;;;;5136171;27;20482;-72
2021/04/14 08:37:29;;;;;;;3.40;0.90;;;7.70;73.00;;;;;;5136158;27;20042;-73
2021/04/14 08:40:00;;;;;;;2.60;0.63;;;7.70;73.60;;;;;;5136120;27;20050;-72
2021/04/14 08:42:38;;;;;;;4.22;0.85;;;7.80;73.80;;;;;;5136636;27;20034;-72
2021/04/14 08:45:09;;;;;;;3.38;0.75;;;8.50;73.70;;;;;;5136461;27;20039;-72
2021/04/14 08:47:37;;;;;;;2.78;0.90;;;8.90;72.70;;;;;;5136830;27;20042;-72
2021/04/14 08:50:19;;;;;;;2.45;0.50;;;9.00;71.20;;;;;;5136383;27;20043;-72
2021/04/14 08:52:50;;;;;;;3.10;0.73;;;8.60;70.40;;;;;;5136066;27;20517;-71
2021/04/14 08:55:16;;;;;;;1.33;0.60;;;8.60;72.40;;;;;;5134301;27;20131;-72
2021/04/14 08:57:42;;;;;;;3.10;0.50;;;8.80;72.70;;;;;;5136221;27;20043;-72
2021/04/14 09:00:09;;;;;;;3.05;0.65;;;8.90;73.20;;;;;;5136366;27;20106;-71
2021/04/14 09:02:37;;;;;;;2.03;0.50;;;9.20;72.60;;;;;;5135908;27;20391;-71
2021/04/14 09:05:08;;;;;;;1.42;0.70;;;9.50;71.50;;;;;;5135225;27;20403;-72
2021/04/14 09:07:37;;;;;;;6.15;0.82;;;9.60;71.30;;;;;;5135925;27;20494;-71
2021/04/14 09:10:07;;;;;;;3.25;0.43;;;9.90;71.10;;;;;;5135520;27;20039;-71
2021/04/14 09:12:36;;;;;;;2.95;0.73;;;9.80;69.50;;;;;;5135410;27;20491;-71
2021/04/14 09:15:11;;;;;;;3.40;0.57;;;9.20;70.30;;;;;;5133762;27;20043;-71
2021/04/14 09:17:37;;;;;;;1.25;0.50;;;9.30;71.80;;;;;;5135539;27;20077;-71
2021/04/14 09:20:21;;;;;;;2.13;0.60;;;9.10;71.10;;;;;;5135347;27;20043;-70
2021/04/14 09:23:03;;;;;;;1.13;0.60;;;9.30;71.10;;;;;;5135609;27;20066;-70
2021/04/14 09:25:41;;;;;;;4.50;0.75;;;9.40;69.50;;;;;;5135308;27;20047;-70
2021/04/14 09:28:09;;;;;;;3.47;0.70;;;9.10;69.10;;;;;;5135129;27;20035;-71
2021/04/14 09:30:51;;;;;;;3.53;0.80;;;9.30;68.50;;;;;;5133743;27;20426;-70
2021/04/14 09:33:35;;;;;;;2.72;0.60;;;9.50;68.30;;;;;;5135540;27;20095;-70
2021/04/14 09:36:04;;;;;;;3.78;0.95;;;9.80;68.10;;;;;;5134564;27;20046;-70
2021/04/14 09:38:45;;;;;;;3.35;0.70;;;9.90;67.50;;;;;;5134424;27;20463;-70
2021/04/14 09:41:25;;;;;;;2.40;0.85;;;10.00;67.70;;;;;;5133742;27;20088;-71
2021/04/14 09:43:52;;;;;;;3.25;0.80;;;10.10;66.70;;;;;;5135631;27;20086;-70
2021/04/14 09:46:37;;;;;;;3.22;0.88;;;10.00;66.80;;;;;;5134577;27;20121;-71
2021/04/14 09:49:13;;;;;;;4.32;1.00;;;9.90;66.10;;;;;;5135172;27;20062;-71
2021/04/14 09:51:43;;;;;;;2.90;1.38;;;9.60;66.10;;;;;;5134961;27;20063;-71
2021/04/14 09:54:12;;;;;;;4.63;1.02;;;9.40;66.30;;;;;;5134836;27;20042;-71
2021/04/14 09:56:48;;;;;;;6.20;1.10;;;8.70;67.80;;;;;;5133235;27;20070;-70
2021/04/14 09:59:18;;;;;;;4.82;0.98;;;8.80;69.00;;;;;;5135081;27;20037;-71
2021/04/14 10:01:48;;;;;;;4.07;1.33;;;8.80;68.60;;;;;;5134992;27;20185;-71
2021/04/14 10:04:25;;;;;;;5.25;1.00;;;9.20;68.70;;;;;;5134500;27;20031;-70
2021/04/14 10:07:01;;;;;;;4.85;1.10;;;9.60;68.50;;;;;;5134285;27;20114;-71
2021/04/14 10:09:32;;;;;;;7.00;1.17;;;9.70;67.50;;;;;;5134534;27;20034;-73
2021/04/14 10:12:14;;;;;;;3.97;1.23;;;9.20;66.30;;;;;;5135328;27;20096;-72
2021/04/14 10:14:41;;;;;;;4.47;0.88;;;9.00;66.10;;;;;;5133484;27;20095;-73
2021/04/14 10:17:09;;;;;;;5.40;0.88;;;8.80;65.40;;;;;;5134421;27;20043;-72
2021/04/14 10:19:35;;;;;;;4.95;0.65;;;8.40;65.80;;;;;;5134500;27;20037;-71
2021/04/14 10:22:08;;;;;;;6.35;1.08;;;8.20;66.00;;;;;;5134287;27;20043;-71
2021/04/14 10:24:34;;;;;;;4.75;0.90;;;8.20;65.90;;;;;;5134013;27;20380;-72
2021/04/14 10:27:00;;;;;;;1.95;0.70;;;8.20;65.90;;;;;;5134672;27;20549;-71
2021/04/14 10:29:35;;;;;;;5.50;0.98;;;8.30;64.90;;;;;;5134764;27;20039;-71
2021/04/14 10:32:01;;;;;;;2.63;0.93;;;8.60;63.10;;;;;;5134788;27;20039;-71
2021/04/14 10:34:32;;;;;;;6.25;1.00;;;8.80;63.10;;;;;;5134132;27;20471;-72
2021/04/14 10:36:59;;;;;;;3.47;0.80;;;9.20;65.00;;;;;;5134279;27;20058;-71
2021/04/14 10:39:29;;;;;;;3.35;1.13;;;9.00;61.30;;;;;;5134309;27;20047;-71
2021/04/14 10:41:56;;;;;;;2.58;0.70;;;8.60;59.60;;;;;;5134678;27;20065;-71
2021/04/14 10:44:26;;;;;;;3.08;0.73;;;8.70;59.00;;;;;;5134251;28;20543;-71
2021/04/14 10:47:01;;;;;;;6.50;0.65;;;8.50;59.40;;;;;;5135001;27;20059;-71
2021/04/14 10:49:32;;;;;;;1.42;0.40;;;8.50;58.90;;;;;;5137090;27;20375;-71
2021/04/14 10:52:22;;;;;;;5.45;1.10;;;8.50;60.00;;;;;;5138581;27;20478;-71
2021/04/14 10:54:51;;;;;;;3.72;0.70;;;8.80;60.50;;;;;;5138274;27;20031;-71
2021/04/14 10:57:38;;;;;;;1.42;0.50;;;9.00;60.70;;;;;;5138119;27;20039;-70
2021/04/14 11:00:35;;;;;;;3.95;0.73;;;8.80;59.60;;;;;;5138161;27;20042;-71
2021/04/14 11:03:05;;;;;;;4.03;1.00;;;8.90;61.00;;;;;;5136237;27;20127;-71
2021/04/14 11:05:32;;;;;;;6.30;1.00;;;8.80;61.40;;;;;;5137623;27;20035;-71
2021/04/14 11:07:58;;;;;;;6.38;0.80;;;8.80;62.20;;;;;;5138143;27;20071;-71
2021/04/14 11:10:27;;;;;;;4.43;0.70;;;8.60;59.60;;;;;;5137857;27;20031;-71
2021/04/14 11:12:55;;;;;;;1.60;0.50;;;8.70;57.60;;;;;;5137936;27;20035;-71
2021/04/14 11:15:24;;;;;;;4.13;0.85;;;8.90;58.30;;;;;;5137414;27;20435;-71
2021/04/14 11:17:59;;;;;;;3.72;0.75;;;8.80;58.70;;;;;;5137529;27;20086;-71
2021/04/14 11:20:42;;;;;;;3.75;0.88;;;8.90;59.50;;;;;;5137532;27;20070;-70
2021/04/14 11:23:31;;;;;;;2.05;0.65;;;9.30;60.00;;;;;;5138271;27;20114;-71
2021/04/14 11:26:13;;;;;;;3.60;0.57;;;8.90;58.40;;;;;;5136010;27;20383;-71
2021/04/14 11:28:44;;;;;;;1.58;0.70;;;8.80;56.60;;;;;;5137278;27;20042;-71
2021/04/14 11:31:11;;;;;;;2.05;0.70;;;8.90;57.20;;;;;;5137512;27;20039;-70
2021/04/14 11:33:40;;;;;;;3.15;0.88;;;9.10;59.10;;;;;;5137264;27;20151;-71
2021/04/14 11:36:29;;;;;;;0.65;0.40;;;9.10;59.50;;;;;;5136975;27;20411;-71
2021/04/14 11:39:06;;;;;;;1.90;0.40;;;9.10;54.40;;;;;;5138194;27;20053;-71
2021/04/14 11:41:42;;;;;;;4.72;1.35;;;9.30;56.40;;;;;;5137316;27;20084;-71
2021/04/14 11:44:23;;;;;;;4.88;1.38;;;9.60;58.40;;;;;;5137144;27;20047;-71
2021/04/14 11:47:02;;;;;;;2.03;0.57;;;9.60;58.60;;;;;;5137294;27;20047;-72
2021/04/14 11:49:36;;;;;;;4.45;0.80;;;9.30;58.80;;;;;;5137705;27;20521;-72
2021/04/14 11:52:14;;;;;;;;;;;9.30;57.70;;;;;;5136532;27;20080;-72
2021/04/14 11:54:39;;;;;;;2.50;0.57;;;9.30;58.20;;;;;;5137138;27;20342;-72
2021/04/14 11:57:16;;;;;;;2.58;0.70;;;9.50;58.80;;;;;;5137621;27;20074;-72
2021/04/14 12:00:01;;;;;;;2.55;0.80;;;9.40;58.20;;;;;;5135004;27;20122;-72
2021/04/14 12:02:28;;;;;;;6.78;1.10;;;9.60;57.80;;;;;;5135747;27;20126;-72
2021/04/14 12:05:04;;;;;;;2.78;1.02;;;9.50;58.80;;;;;;5136799;27;20039;-71
2021/04/14 12:07:30;;;;;;;4.38;0.95;;;9.30;58.60;;;;;;5136790;27;20074;-71
2021/04/14 12:09:56;;;;;;;2.17;0.95;;;9.10;58.30;;;;;;5137697;27;20074;-70
2021/04/14 12:12:22;;;;;;;3.50;0.85;;;9.20;59.00;;;;;;5135734;27;20106;-70
2021/04/14 12:14:48;;;;;;;2.83;0.80;;;9.20;59.50;;;;;;5136063;27;20043;-71
2021/04/14 12:17:14;;;;;;;2.20;0.80;;;9.30;58.40;;;;;;5136938;27;20126;-70
2021/04/14 12:19:41;;;;;;;1.40;0.50;;;9.10;57.00;;;;;;5137077;27;20051;-70
2021/04/14 12:22:08;;;;;;;1.92;0.60;;;9.20;56.50;;;;;;5136652;27;20110;-70
2021/04/14 12:24:34;;;;;;;2.67;0.70;;;9.40;56.50;;;;;;5136545;27;20082;-70
2021/04/14 12:26:59;;;;;;;2.13;0.50;;;9.30;56.80;;;;;;5136393;27;20039;-70
2021/04/14 12:29:25;;;;;;;4.03;0.60;;;9.20;57.00;;;;;;5136345;27;20081;-70
2021/04/14 12:31:51;;;;;;;1.92;0.50;;;9.20;56.50;;;;;;5136300;27;20089;-70
2021/04/14 12:34:17;;;;;;;2.38;0.50;;;9.30;57.80;;;;;;5136831;27;20061;-71
2021/04/14 12:36:43;;;;;;;2.55;0.80;;;9.60;59.20;;;;;;5136018;27;20055;-71
2021/04/14 12:39:10;;;;;;;4.63;1.10;;;9.60;58.40;;;;;;5136991;27;20043;-70
2021/04/14 12:41:37;;;;;;;3.30;1.27;;;9.40;59.30;;;;;;5136042;27;20062;-71
2021/04/14 12:44:04;;;;;;;5.18;0.98;;;9.20;61.20;;;;;;5136255;27;20041;-70
2021/04/14 12:46:30;;;;;;;2.22;0.70;;;9.10;60.50;;;;;;5136225;27;20043;-71
2021/04/14 12:48:56;;;;;;;7.05;0.90;;;9.10;59.50;;;;;;5134797;27;20505;-72
2021/04/14 12:51:37;;;;;;;3.05;1.08;;;8.90;57.80;;;;;;5136267;27;20035;-71
2021/04/14 12:54:20;;;;;;;8.63;1.90;;;8.80;59.20;;;;;;5136011;27;20110;-71
2021/04/14 12:56:59;;;;;;;7.03;1.85;;;8.70;60.30;;;;;;5135907;27;20471;-71
2021/04/14 12:59:29;;;;;;;4.15;0.90;;;8.70;60.40;;;;;;5135860;27;20039;-71
2021/04/14 13:02:02;;;;;;;2.10;0.75;;;8.50;59.20;;;;;;5136320;27;20058;-71
2021/04/14 13:04:48;;;;;;;;;;;8.70;58.80;;;;;;5135964;27;20039;-72
2021/04/14 13:07:23;;;;;;;2.47;0.82;;;9.10;58.90;;;;;;5135387;27;20381;-71
2021/04/14 13:09:50;;;;;;;3.40;0.93;;;9.30;59.10;;;;;;5136126;27;20110;-71
2021/04/14 13:12:28;;;;;;;4.38;0.75;;;9.60;58.70;;;;;;5135937;27;20062;-71
2021/04/14 13:14:54;;;;;;;2.20;0.55;;;9.70;58.20;;;;;;5135131;27;20548;-71
2021/04/14 13:17:28;;;;;;;2.47;1.05;;;9.70;56.80;;;;;;5135966;27;20047;-71
2021/04/14 13:19:56;;;;;;;2.72;0.52;;;9.80;55.20;;;;;;5135793;27;20079;-71